createdAt,value
2019-04-03T00:00:00.360Z,8.85
2019-04-03T00:01:15.309Z,7.90
2019-04-03T00:02:29.365Z,7.05
2019-04-03T00:03:42.610Z,7.67
2019-04-03T00:04:55.882Z,6.53
2019-04-03T00:06:09.125Z,7.60
2019-04-03T00:07:22.359Z,5.75
2019-04-03T00:08:36.670Z,7.33
2019-04-03T00:09:50.353Z,9.00
2019-04-03T00:11:03.601Z,7.85
2019-04-03T00:12:16.842Z,5.97
2019-04-03T00:13:30.181Z,8.20
2019-04-03T00:14:43.433Z,8.23
2019-04-03T00:15:56.667Z,7.62
2019-04-03T00:17:09.907Z,8.03
2019-04-03T00:18:23.151Z,9.13
2019-04-03T00:19:36.422Z,9.90
2019-04-03T00:20:50.677Z,9.18
2019-04-03T00:22:04.117Z,8.30
2019-04-03T00:23:17.581Z,6.55
2019-04-03T00:24:30.850Z,10.03
2019-04-03T00:25:44.157Z,8.58
2019-04-03T00:26:57.403Z,8.35
2019-04-03T00:28:10.841Z,7.20
2019-04-03T00:29:24.131Z,9.33
2019-04-03T00:30:37.387Z,10.05
2019-04-03T00:31:53.056Z,9.75
2019-04-03T00:33:05.610Z,7.03
2019-04-03T00:34:19.026Z,9.75
2019-04-03T00:35:32.447Z,9.73
2019-04-03T00:36:46.080Z,11.28
2019-04-03T00:37:59.430Z,9.03
2019-04-03T00:39:12.681Z,8.40
2019-04-03T00:40:25.949Z,12.05
2019-04-03T00:41:41.678Z,9.03
2019-04-03T00:42:54.918Z,8.53
2019-04-03T00:44:08.154Z,7.25
2019-04-03T00:45:24.018Z,9.15
2019-04-03T00:46:36.424Z,10.18
2019-04-03T00:47:51.687Z,9.55
2019-04-03T00:49:04.980Z,9.93
2019-04-03T00:50:18.290Z,9.13
2019-04-03T00:51:32.563Z,9.53
2019-04-03T00:52:45.904Z,9.98
2019-04-03T00:53:59.711Z,9.63
2019-04-03T00:55:13.038Z,11.30
2019-04-03T00:56:26.724Z,9.05
2019-04-03T00:57:40.262Z,9.40
2019-04-03T00:58:55.009Z,15.55
2019-04-03T01:00:13.605Z,6.95
2019-04-03T01:01:27.018Z,9.60
2019-04-03T01:02:40.281Z,10.40
2019-04-03T01:03:53.604Z,10.70
2019-04-03T01:05:06.900Z,10.80
2019-04-03T01:06:20.150Z,10.38
2019-04-03T01:07:33.399Z,11.33
2019-04-03T01:08:46.677Z,10.90
2019-04-03T01:10:00.028Z,13.93
2019-04-03T01:11:13.438Z,12.05
2019-04-03T01:12:26.800Z,9.45
2019-04-03T01:13:41.376Z,8.33
2019-04-03T01:14:54.723Z,8.90
2019-04-03T01:16:08.097Z,9.00
2019-04-03T01:17:21.328Z,8.20
2019-04-03T01:18:35.392Z,13.15
2019-04-03T01:19:48.837Z,9.78
2019-04-03T01:21:02.102Z,8.83
2019-04-03T01:22:15.333Z,8.40
2019-04-03T01:23:28.589Z,11.25
2019-04-03T01:24:41.926Z,10.75
2019-04-03T01:25:55.171Z,9.43
2019-04-03T01:27:11.169Z,11.05
2019-04-03T01:28:23.491Z,9.53
2019-04-03T01:29:36.844Z,8.78
2019-04-03T01:30:50.101Z,11.18
2019-04-03T01:32:03.323Z,10.28
2019-04-03T01:33:17.449Z,9.10
2019-04-03T01:34:30.852Z,9.60
2019-04-03T01:35:44.188Z,8.33
2019-04-03T01:36:57.460Z,8.60
2019-04-03T01:38:11.039Z,9.50
2019-04-03T01:39:24.290Z,9.23
2019-04-03T01:40:37.565Z,10.93
2019-04-03T01:41:51.452Z,9.40
2019-04-03T01:43:05.373Z,9.30
2019-04-03T01:44:18.756Z,9.75
2019-04-03T01:45:32.351Z,8.43
2019-04-03T01:46:46.057Z,9.83
2019-04-03T01:47:59.385Z,10.55
2019-04-03T01:49:12.968Z,7.95
2019-04-03T01:50:26.808Z,7.87
2019-04-03T01:51:41.694Z,8.48
2019-04-03T01:52:55.081Z,8.83
2019-04-03T01:54:08.593Z,9.60
2019-04-03T01:55:22.077Z,11.25
2019-04-03T01:56:36.282Z,7.72
2019-04-03T01:57:49.849Z,11.35
2019-04-03T01:59:03.145Z,9.18
2019-04-03T02:00:16.413Z,8.80
2019-04-03T02:01:29.774Z,12.07
2019-04-03T02:02:43.087Z,8.68
2019-04-03T02:03:56.347Z,9.40
2019-04-03T02:05:12.135Z,9.70
2019-04-03T02:06:24.665Z,8.40
2019-04-03T02:07:37.986Z,8.35
2019-04-03T02:08:51.304Z,9.45
2019-04-03T02:10:05.641Z,10.63
2019-04-03T02:11:19.212Z,11.33
2019-04-03T02:12:32.571Z,11.03
2019-04-03T02:13:45.898Z,9.88
2019-04-03T02:14:59.242Z,12.30
2019-04-03T02:16:12.661Z,8.60
2019-04-03T02:17:25.921Z,8.25
2019-04-03T02:18:39.252Z,8.68
2019-04-03T02:19:52.712Z,8.30
2019-04-03T02:21:06.058Z,11.08
2019-04-03T02:22:19.378Z,7.95
2019-04-03T02:23:32.628Z,11.40
2019-04-03T02:24:46.011Z,9.85
2019-04-03T02:25:59.283Z,9.55
2019-04-03T02:27:14.013Z,8.60
2019-04-03T02:28:27.271Z,9.38
2019-04-03T02:29:40.510Z,9.43
2019-04-03T02:30:53.925Z,8.03
2019-04-03T02:32:07.218Z,9.50
2019-04-03T02:33:20.512Z,8.95
2019-04-03T02:34:35.491Z,7.75
2019-04-03T02:35:48.867Z,10.60
2019-04-03T02:37:02.280Z,9.93
2019-04-03T02:38:15.904Z,13.60
2019-04-03T02:39:29.290Z,8.45
2019-04-03T02:40:42.805Z,8.33
2019-04-03T02:41:56.232Z,8.85
2019-04-03T02:43:13.479Z,9.40
2019-04-03T02:44:24.843Z,13.15
2019-04-03T02:45:38.462Z,7.97
2019-04-03T02:46:51.738Z,10.32
2019-04-03T02:48:06.231Z,10.72
2019-04-03T02:49:20.017Z,10.05
2019-04-03T02:50:33.260Z,13.78
2019-04-03T02:51:46.571Z,8.75
2019-04-03T02:52:59.835Z,13.68
2019-04-03T02:54:27.313Z,8.30
2019-04-03T02:55:41.272Z,12.50
2019-04-03T02:56:55.631Z,10.32
2019-04-03T02:58:08.982Z,11.73
2019-04-03T02:59:25.247Z,12.85
2019-04-03T03:00:37.281Z,8.23
2019-04-03T03:01:50.557Z,8.60
2019-04-03T03:03:03.787Z,9.50
2019-04-03T03:04:20.724Z,8.48
2019-04-03T03:05:32.133Z,11.55
2019-04-03T03:06:45.402Z,10.13
2019-04-03T03:07:58.755Z,9.40
2019-04-03T03:09:13.530Z,9.90
2019-04-03T03:10:30.600Z,10.68
2019-04-03T03:11:41.999Z,12.65
2019-04-03T03:12:59.722Z,11.05
2019-04-03T03:14:10.762Z,9.03
2019-04-03T03:15:24.009Z,10.53
2019-04-03T03:16:37.284Z,10.50
2019-04-03T03:17:54.428Z,11.20
2019-04-03T03:19:05.578Z,10.00
2019-04-03T03:20:22.199Z,12.98
2019-04-03T03:21:35.618Z,10.13
2019-04-03T03:22:50.523Z,11.15
2019-04-03T03:24:04.337Z,10.40
2019-04-03T03:25:17.976Z,11.83
2019-04-03T03:26:31.286Z,9.93
2019-04-03T03:27:44.637Z,12.05
2019-04-03T03:29:13.882Z,10.82
2019-04-03T03:30:33.837Z,11.85
2019-04-03T03:31:57.624Z,12.13
2019-04-03T03:32:43.152Z,11.48
2019-04-03T03:34:01.663Z,11.38
2019-04-03T03:35:15.077Z,9.45
2019-04-03T03:36:27.538Z,12.65
2019-04-03T03:37:41.753Z,11.30
2019-04-03T03:38:55.369Z,14.18
2019-04-03T03:40:08.625Z,9.58
2019-04-03T03:41:23.703Z,11.05
2019-04-03T03:42:37.037Z,10.18
2019-04-03T03:43:50.926Z,12.78
2019-04-03T03:45:05.850Z,9.98
2019-04-03T03:46:19.191Z,11.05
2019-04-03T03:47:35.205Z,9.60
2019-04-03T03:48:48.000Z,10.93
2019-04-03T03:50:01.578Z,11.03
2019-04-03T03:51:14.844Z,16.32
2019-04-03T03:52:28.097Z,12.13
2019-04-03T03:53:44.553Z,13.53
2019-04-03T03:54:56.288Z,12.05
2019-04-03T03:56:09.658Z,10.05
2019-04-03T03:57:23.211Z,10.03
2019-04-03T03:58:36.843Z,12.98
2019-04-03T03:59:51.944Z,9.78
2019-04-03T04:01:05.249Z,10.15
2019-04-03T04:02:18.592Z,10.65
2019-04-03T04:03:31.851Z,13.22
2019-04-03T04:04:48.039Z,11.33
2019-04-03T04:06:00.143Z,10.30
2019-04-03T04:07:13.412Z,11.10
2019-04-03T04:08:26.664Z,14.90
2019-04-03T04:09:39.965Z,13.15
2019-04-03T04:10:53.497Z,12.78
2019-04-03T04:12:08.699Z,11.18
2019-04-03T04:13:22.337Z,9.85
2019-04-03T04:14:36.207Z,11.60
2019-04-03T04:15:49.692Z,10.78
2019-04-03T04:17:03.066Z,13.40
2019-04-03T04:18:16.409Z,10.35
2019-04-03T04:19:31.075Z,12.58
2019-04-03T04:20:45.014Z,12.98
2019-04-03T04:21:59.659Z,11.48
2019-04-03T04:23:12.988Z,10.13
2019-04-03T04:24:28.097Z,11.12
2019-04-03T04:25:43.640Z,11.18
2019-04-03T04:26:56.558Z,14.20
2019-04-03T04:28:10.383Z,10.05
2019-04-03T04:29:24.223Z,10.58
2019-04-03T04:30:37.568Z,16.27
2019-04-03T04:31:50.838Z,12.10
2019-04-03T04:33:04.359Z,11.83
2019-04-03T04:34:18.914Z,10.90
2019-04-03T04:35:32.889Z,12.53
2019-04-03T04:36:46.154Z,10.72
2019-04-03T04:37:59.622Z,14.47
2019-04-03T04:39:13.040Z,13.78
2019-04-03T04:40:26.321Z,16.42
2019-04-03T04:41:39.617Z,9.28
2019-04-03T04:42:52.861Z,9.63
2019-04-03T04:44:06.150Z,14.03
2019-04-03T04:45:19.506Z,9.85
2019-04-03T04:46:32.759Z,12.95
2019-04-03T04:47:46.524Z,14.65
2019-04-03T04:48:59.842Z,29.92
2019-04-03T04:50:14.760Z,19.45
2019-04-03T04:51:28.022Z,17.92
2019-04-03T04:52:41.271Z,15.00
2019-04-03T04:53:54.562Z,14.75
2019-04-03T04:55:08.255Z,12.33
2019-04-03T04:56:21.491Z,12.13
2019-04-03T04:57:34.757Z,11.15
2019-04-03T04:58:48.228Z,12.05
2019-04-03T05:00:01.536Z,12.10
2019-04-03T05:01:17.116Z,15.45
2019-04-03T05:02:29.824Z,13.75
2019-04-03T05:03:43.067Z,18.57
2019-04-03T05:04:56.677Z,13.00
2019-04-03T05:06:10.078Z,18.10
2019-04-03T05:07:23.311Z,18.37
2019-04-03T05:08:36.710Z,11.22
2019-04-03T05:09:50.119Z,10.93
2019-04-03T05:11:03.363Z,18.12
2019-04-03T05:12:16.656Z,18.52
2019-04-03T05:13:30.111Z,30.20
2019-04-03T05:14:43.458Z,16.35
2019-04-03T05:15:57.358Z,17.15
2019-04-03T05:17:10.602Z,17.35
2019-04-03T05:18:23.902Z,16.17
2019-04-03T05:19:37.209Z,14.80
2019-04-03T05:20:50.828Z,16.70
2019-04-03T05:22:04.769Z,13.05
2019-04-03T05:23:18.284Z,12.68
2019-04-03T05:24:31.945Z,15.43
2019-04-03T05:25:45.465Z,18.20
2019-04-03T05:26:58.858Z,20.12
2019-04-03T05:28:12.112Z,27.07
2019-04-03T05:29:25.353Z,19.37
2019-04-03T05:30:38.737Z,17.65
2019-04-03T05:31:52.008Z,17.52
2019-04-03T05:33:05.320Z,16.52
2019-04-03T05:34:18.805Z,17.82
2019-04-03T05:35:32.224Z,15.48
2019-04-03T05:36:46.838Z,11.78
2019-04-03T05:38:00.491Z,16.60
2019-04-03T05:39:14.712Z,18.92
2019-04-03T05:40:28.008Z,14.23
2019-04-03T05:41:41.284Z,16.57
2019-04-03T05:42:54.509Z,15.15
2019-04-03T05:44:07.798Z,18.12
2019-04-03T05:45:21.257Z,14.40
2019-04-03T05:46:36.551Z,14.98
2019-04-03T05:47:49.899Z,15.13
2019-04-03T05:49:03.440Z,13.45
2019-04-03T05:50:16.889Z,12.03
2019-04-03T05:51:30.336Z,15.32
2019-04-03T05:52:43.632Z,15.90
2019-04-03T05:53:56.948Z,16.87
2019-04-03T05:55:10.219Z,19.65
2019-04-03T05:56:23.785Z,18.00
2019-04-03T05:57:37.082Z,17.92
2019-04-03T05:58:55.954Z,21.62
2019-04-03T06:00:07.558Z,15.63
2019-04-03T06:01:21.182Z,14.73
2019-04-03T06:02:34.448Z,14.68
2019-04-03T06:03:47.697Z,12.68
2019-04-03T06:05:00.957Z,13.65
2019-04-03T06:06:15.380Z,16.62
2019-04-03T06:07:28.973Z,17.85
2019-04-03T06:08:42.258Z,26.90
2019-04-03T06:09:58.490Z,22.67
2019-04-03T06:11:10.637Z,12.78
2019-04-03T06:12:24.259Z,15.03
2019-04-03T06:13:37.558Z,16.48
2019-04-03T06:14:51.008Z,22.00
2019-04-03T06:16:04.447Z,17.62
2019-04-03T06:17:17.820Z,18.70
2019-04-03T06:18:32.377Z,15.68
2019-04-03T06:19:45.908Z,17.00
2019-04-03T06:20:59.310Z,17.48
2019-04-03T06:22:12.659Z,11.97
2019-04-03T06:23:26.354Z,15.48
2019-04-03T06:24:39.658Z,14.73
2019-04-03T06:25:52.950Z,20.65
2019-04-03T06:27:09.168Z,19.30
2019-04-03T06:28:21.570Z,23.98
2019-04-03T06:29:34.865Z,21.02
2019-04-03T06:30:48.437Z,19.92
2019-04-03T06:32:01.808Z,21.85
2019-04-03T06:33:15.171Z,16.65
2019-04-03T06:34:28.495Z,24.52
2019-04-03T06:35:44.540Z,23.50
2019-04-03T06:36:57.065Z,19.02
2019-04-03T06:38:10.392Z,18.87
2019-04-03T06:39:24.265Z,19.30
2019-04-03T06:40:37.720Z,16.87
2019-04-03T06:41:51.152Z,21.33
2019-04-03T06:43:11.334Z,20.77
2019-04-03T06:44:24.577Z,16.30
2019-04-03T06:45:37.840Z,17.75
2019-04-03T06:46:53.898Z,18.23
2019-04-03T06:48:06.298Z,16.35
2019-04-03T06:49:21.945Z,18.60
2019-04-03T06:50:37.647Z,17.82
2019-04-03T06:51:50.986Z,16.15
2019-04-03T06:53:07.443Z,13.10
2019-04-03T06:54:22.649Z,21.35
2019-04-03T06:55:36.509Z,17.15
2019-04-03T06:56:52.140Z,15.45
2019-04-03T06:58:04.950Z,19.40
2019-04-03T06:59:18.975Z,17.87
2019-04-03T07:00:34.257Z,14.10
2019-04-03T07:01:47.491Z,13.75
2019-04-03T07:03:02.919Z,18.73
2019-04-03T07:04:15.780Z,20.75
2019-04-03T07:05:29.033Z,17.52
2019-04-03T07:06:44.315Z,19.77
2019-04-03T07:07:57.857Z,26.48
2019-04-03T07:09:22.766Z,18.35
2019-04-03T07:10:28.130Z,15.90
2019-04-03T07:11:43.268Z,17.32
2019-04-03T07:12:56.423Z,18.07
2019-04-03T07:14:09.662Z,16.97
2019-04-03T07:15:24.602Z,17.80
2019-04-03T07:16:38.926Z,18.57
2019-04-03T07:17:52.417Z,17.48
2019-04-03T07:19:07.805Z,18.20
2019-04-03T07:20:21.238Z,15.43
2019-04-03T07:21:36.052Z,17.90
2019-04-03T07:22:49.572Z,22.60
2019-04-03T07:24:03.637Z,20.05
2019-04-03T07:25:16.959Z,17.32
2019-04-03T07:26:30.240Z,17.37
2019-04-03T07:27:44.218Z,15.50
2019-04-03T07:28:58.868Z,14.07
2019-04-03T07:30:12.752Z,16.07
2019-04-03T07:31:26.032Z,14.20
2019-04-03T07:32:39.277Z,15.65
2019-04-03T07:33:52.648Z,19.07
2019-04-03T07:35:09.345Z,18.05
2019-04-03T07:36:21.245Z,13.78
2019-04-03T07:37:34.821Z,23.67
2019-04-03T07:38:49.419Z,18.80
2019-04-03T07:40:03.314Z,14.07
2019-04-03T07:41:16.670Z,17.52
2019-04-03T07:42:32.123Z,13.15
2019-04-03T07:43:45.414Z,11.30
2019-04-03T07:45:01.413Z,12.25
2019-04-03T07:46:15.702Z,12.82
2019-04-03T07:47:29.949Z,11.90
2019-04-03T07:48:43.507Z,17.85
2019-04-03T07:49:56.880Z,16.37
2019-04-03T07:51:12.738Z,16.07
2019-04-03T07:52:25.117Z,14.80
2019-04-03T07:53:38.494Z,14.43
2019-04-03T07:54:52.900Z,15.03
2019-04-03T07:56:06.557Z,17.30
2019-04-03T07:57:20.173Z,15.23
2019-04-03T07:58:36.644Z,12.78
2019-04-03T07:59:49.973Z,13.25
2019-04-03T08:01:03.233Z,15.30
2019-04-03T08:02:16.505Z,13.18
2019-04-03T08:03:30.290Z,14.47
2019-04-03T08:04:43.714Z,10.93
2019-04-03T08:05:57.258Z,13.50
2019-04-03T08:07:10.663Z,11.63
2019-04-03T08:08:23.983Z,13.30
2019-04-03T08:09:37.843Z,16.32
2019-04-03T08:10:51.146Z,17.85
2019-04-03T08:12:04.582Z,11.68
2019-04-03T08:13:17.968Z,13.50
2019-04-03T08:14:31.218Z,13.13
2019-04-03T08:15:45.434Z,12.78
2019-04-03T08:16:59.846Z,13.70
2019-04-03T08:18:13.086Z,11.12
2019-04-03T08:19:26.534Z,18.17
2019-04-03T08:20:39.840Z,15.70
2019-04-03T08:21:53.114Z,15.48
2019-04-03T08:23:06.827Z,15.00
2019-04-03T08:24:20.104Z,16.50
2019-04-03T08:25:33.483Z,14.13
2019-04-03T08:26:48.947Z,12.05
2019-04-03T08:28:04.119Z,14.83
2019-04-03T08:29:17.683Z,18.40
2019-04-03T08:30:30.939Z,13.22
2019-04-03T08:31:48.367Z,15.38
2019-04-03T08:33:00.464Z,15.43
2019-04-03T08:34:18.097Z,13.35
2019-04-03T08:35:29.781Z,14.15
2019-04-03T08:36:43.159Z,13.50
2019-04-03T08:37:56.431Z,16.60
2019-04-03T08:39:09.780Z,12.45
2019-04-03T08:40:23.110Z,17.95
2019-04-03T08:41:37.787Z,15.10
2019-04-03T08:42:51.313Z,18.32
2019-04-03T08:44:08.222Z,16.77
2019-04-03T08:45:21.638Z,14.23
2019-04-03T08:46:35.328Z,15.85
2019-04-03T08:47:48.974Z,16.30
2019-04-03T08:49:02.826Z,14.47
2019-04-03T08:50:16.112Z,16.30
2019-04-03T08:51:29.443Z,12.90
2019-04-03T08:52:43.760Z,14.28
2019-04-03T08:53:57.244Z,13.20
2019-04-03T08:55:12.943Z,15.75
2019-04-03T08:56:25.744Z,15.55
2019-04-03T08:57:39.163Z,19.62
2019-04-03T08:58:54.863Z,18.95
2019-04-03T09:00:09.098Z,19.40
2019-04-03T09:01:22.372Z,17.42
2019-04-03T09:02:35.726Z,14.30
2019-04-03T09:03:49.337Z,15.03
2019-04-03T09:05:04.013Z,12.73
2019-04-03T09:06:17.423Z,17.25
2019-04-03T09:07:32.987Z,17.30
2019-04-03T09:08:48.035Z,13.20
2019-04-03T09:10:01.554Z,13.70
2019-04-03T09:11:15.296Z,14.60
2019-04-03T09:12:28.670Z,15.48
2019-04-03T09:13:42.101Z,14.43
2019-04-03T09:14:57.067Z,14.03
2019-04-03T09:16:11.009Z,14.98
2019-04-03T09:17:24.340Z,16.75
2019-04-03T09:18:38.270Z,18.65
2019-04-03T09:19:52.092Z,14.65
2019-04-03T09:21:05.522Z,13.15
2019-04-03T09:22:20.835Z,15.68
2019-04-03T09:23:34.079Z,12.68
2019-04-03T09:24:47.798Z,17.07
2019-04-03T09:26:03.062Z,14.13
2019-04-03T09:27:16.616Z,14.07
2019-04-03T09:28:36.013Z,14.23
2019-04-03T09:29:49.651Z,15.00
2019-04-03T09:31:03.056Z,15.13
2019-04-03T09:32:19.167Z,18.00
2019-04-03T09:33:32.905Z,14.80
2019-04-03T09:34:46.204Z,14.70
2019-04-03T09:35:59.968Z,15.78
2019-04-03T09:37:13.470Z,16.45
2019-04-03T09:38:27.075Z,22.30
2019-04-03T09:39:40.657Z,18.87
2019-04-03T09:40:53.948Z,14.60
2019-04-03T09:42:07.485Z,18.25
2019-04-03T09:43:22.263Z,17.23
2019-04-03T09:44:36.370Z,23.92
2019-04-03T09:45:49.701Z,13.62
2019-04-03T09:47:03.789Z,17.90
2019-04-03T09:48:17.427Z,14.50
2019-04-03T09:49:31.042Z,13.90
2019-04-03T09:50:46.369Z,14.60
2019-04-03T09:52:00.805Z,14.70
2019-04-03T09:53:14.080Z,14.05
2019-04-03T09:54:28.616Z,13.93
2019-04-03T09:55:42.420Z,15.20
2019-04-03T09:57:03.008Z,16.30
2019-04-03T09:58:11.454Z,19.55
2019-04-03T09:59:24.758Z,13.22
2019-04-03T10:00:38.057Z,15.00
2019-04-03T10:01:51.365Z,16.00
2019-04-03T10:03:05.888Z,13.70
2019-04-03T10:04:20.939Z,17.10
2019-04-03T10:05:35.024Z,13.80
2019-04-03T10:06:48.599Z,13.48
2019-04-03T10:08:01.964Z,15.65
2019-04-03T10:09:15.250Z,17.62
2019-04-03T10:10:28.594Z,13.25
2019-04-03T10:11:42.259Z,15.88
2019-04-03T10:12:55.510Z,13.50
2019-04-03T10:14:08.849Z,14.23
2019-04-03T10:15:22.242Z,12.40
2019-04-03T10:16:35.971Z,16.37
2019-04-03T10:17:49.754Z,13.28
2019-04-03T10:19:03.099Z,15.93
2019-04-03T10:20:17.229Z,15.78
2019-04-03T10:21:33.657Z,12.98
2019-04-03T10:22:47.404Z,15.60
2019-04-03T10:24:00.963Z,12.93
2019-04-03T10:25:14.324Z,12.68
2019-04-03T10:26:28.572Z,12.30
2019-04-03T10:27:43.651Z,14.00
2019-04-03T10:28:57.028Z,11.45
2019-04-03T10:30:12.359Z,12.55
2019-04-03T10:31:25.983Z,13.65
2019-04-03T10:32:39.316Z,15.53
2019-04-03T10:33:53.060Z,13.80
2019-04-03T10:35:08.097Z,14.03
2019-04-03T10:36:21.638Z,15.35
2019-04-03T10:37:34.980Z,9.15
2019-04-03T10:38:49.591Z,9.83
2019-04-03T10:40:04.729Z,9.53
2019-04-03T10:41:18.297Z,11.15
2019-04-03T10:42:32.755Z,10.43
2019-04-03T10:43:46.097Z,10.60
2019-04-03T10:45:00.434Z,11.38
2019-04-03T10:46:14.245Z,8.48
2019-04-03T10:47:40.476Z,9.28
2019-04-03T10:48:43.956Z,8.60
2019-04-03T10:49:57.452Z,9.33
2019-04-03T10:51:10.932Z,7.60
2019-04-03T10:52:24.259Z,11.53
2019-04-03T10:53:37.506Z,9.00
2019-04-03T10:54:50.797Z,10.55
2019-04-03T10:56:04.352Z,8.93
2019-04-03T10:57:17.676Z,7.70
2019-04-03T10:58:31.309Z,9.95
2019-04-03T10:59:50.138Z,11.70
2019-04-03T11:01:01.514Z,13.10
2019-04-03T11:02:14.787Z,10.88
2019-04-03T11:03:28.869Z,8.80
2019-04-03T11:04:42.132Z,13.45
2019-04-03T11:05:55.542Z,7.17
2019-04-03T11:07:09.148Z,8.58
2019-04-03T11:08:22.668Z,9.63
2019-04-03T11:09:37.929Z,12.60
2019-04-03T11:10:51.793Z,12.23
2019-04-03T11:12:05.139Z,10.30
2019-04-03T11:13:19.479Z,11.83
2019-04-03T11:14:33.523Z,11.35
2019-04-03T11:15:47.864Z,8.65
2019-04-03T11:17:01.220Z,13.32
2019-04-03T11:18:14.486Z,7.95
2019-04-03T11:19:27.740Z,10.28
2019-04-03T11:20:41.480Z,8.65
2019-04-03T11:21:56.442Z,9.80
2019-04-03T11:23:11.106Z,7.35
2019-04-03T11:24:24.678Z,8.18
2019-04-03T11:25:41.441Z,7.55
2019-04-03T11:26:53.198Z,8.18
2019-04-03T11:28:07.000Z,7.47
2019-04-03T11:29:20.720Z,9.73
2019-04-03T11:30:34.187Z,8.90
2019-04-03T11:31:47.663Z,7.70
2019-04-03T11:33:01.680Z,9.85
2019-04-03T11:34:17.144Z,10.88
2019-04-03T11:35:30.254Z,9.20
2019-04-03T11:36:43.875Z,7.08
2019-04-03T11:37:57.523Z,8.65
2019-04-03T11:39:14.974Z,6.75
2019-04-03T11:40:26.054Z,9.40
2019-04-03T11:41:39.382Z,7.25
2019-04-03T11:42:53.285Z,7.35
2019-04-03T11:44:07.033Z,8.55
2019-04-03T11:45:20.416Z,9.03
2019-04-03T11:46:33.717Z,6.42
2019-04-03T11:47:48.055Z,5.85
2019-04-03T11:49:01.472Z,7.83
2019-04-03T11:50:14.901Z,7.97
2019-04-03T11:51:29.632Z,11.78
2019-04-03T11:52:43.560Z,8.68
2019-04-03T11:53:57.037Z,6.22
2019-04-03T11:55:11.249Z,4.47
2019-04-03T11:56:25.178Z,7.35
2019-04-03T11:57:38.510Z,4.50
2019-04-03T11:58:52.442Z,4.30
2019-04-03T12:00:12.070Z,3.90
2019-04-03T12:01:25.343Z,5.53
2019-04-03T12:02:39.853Z,4.15
2019-04-03T12:03:53.692Z,5.40
2019-04-03T12:05:07.173Z,5.55
2019-04-03T12:06:21.230Z,4.58
2019-04-03T12:07:34.636Z,4.00
2019-04-03T12:08:48.092Z,4.80
2019-04-03T12:10:03.837Z,3.95
2019-04-03T12:11:16.497Z,4.15
2019-04-03T12:12:30.821Z,4.10
2019-04-03T12:13:45.605Z,3.60
2019-04-03T12:14:59.204Z,3.92
2019-04-03T12:16:12.762Z,4.00
2019-04-03T12:17:27.321Z,4.40
2019-04-03T12:18:41.706Z,3.50
2019-04-03T12:19:55.076Z,3.80
2019-04-03T12:21:10.456Z,6.70
2019-04-03T12:22:23.324Z,6.45
2019-04-03T12:23:39.293Z,3.83
2019-04-03T12:24:51.807Z,5.20
2019-04-03T12:26:05.140Z,5.70
2019-04-03T12:27:18.416Z,4.22
2019-04-03T12:28:31.960Z,6.35
2019-04-03T12:29:46.443Z,5.10
2019-04-03T12:31:04.464Z,8.38
2019-04-03T12:32:17.722Z,4.53
2019-04-03T12:33:31.554Z,5.55
2019-04-03T12:34:44.989Z,4.37
2019-04-03T12:35:58.548Z,4.20
2019-04-03T12:37:12.029Z,4.70
2019-04-03T12:38:25.601Z,3.58
2019-04-03T12:39:38.928Z,3.17
2019-04-03T12:40:52.808Z,5.22
2019-04-03T12:42:08.318Z,3.62
2019-04-03T12:43:21.112Z,4.87
2019-04-03T12:44:35.649Z,4.50
2019-04-03T12:45:49.035Z,3.55
2019-04-03T12:47:06.893Z,3.37
2019-04-03T12:48:19.597Z,6.35
2019-04-03T12:49:32.878Z,5.03
2019-04-03T12:50:46.131Z,3.83
2019-04-03T12:52:02.507Z,4.28
2019-04-03T12:53:16.461Z,7.78
2019-04-03T12:54:30.231Z,2.17
2019-04-03T12:55:43.755Z,3.22
2019-04-03T12:56:57.153Z,3.85
2019-04-03T12:58:12.693Z,2.15
2019-04-03T12:59:26.120Z,1.65
2019-04-03T13:00:39.467Z,3.92
2019-04-03T13:01:52.855Z,1.70
2019-04-03T13:03:06.128Z,2.10
2019-04-03T13:04:21.121Z,3.62
2019-04-03T13:05:37.367Z,4.10
2019-04-03T13:06:51.518Z,3.83
2019-04-03T13:08:05.520Z,1.92
2019-04-03T13:09:19.530Z,2.45
2019-04-03T13:10:41.456Z,2.83
2019-04-03T13:11:49.821Z,4.28
2019-04-03T13:13:02.853Z,3.62
2019-04-03T13:14:24.126Z,4.78
2019-04-03T13:15:32.843Z,1.70
2019-04-03T13:16:47.556Z,1.82
2019-04-03T13:18:02.004Z,5.80
2019-04-03T13:19:16.742Z,2.08
2019-04-03T13:20:30.336Z,3.70
2019-04-03T13:21:43.826Z,3.62
2019-04-03T13:22:58.402Z,2.52
2019-04-03T13:24:12.528Z,3.40
2019-04-03T13:25:26.410Z,3.55
2019-04-03T13:26:39.751Z,3.80
2019-04-03T13:27:53.105Z,2.70
2019-04-03T13:29:08.609Z,10.65
2019-04-03T13:30:22.382Z,2.72
2019-04-03T13:31:35.654Z,3.77
2019-04-03T13:32:58.301Z,3.40
2019-04-03T13:34:06.763Z,3.10
2019-04-03T13:35:22.655Z,4.55
2019-04-03T13:36:36.038Z,1.82
2019-04-03T13:37:55.881Z,1.98
2019-04-03T13:39:14.342Z,2.90
2019-04-03T13:40:27.689Z,2.55
2019-04-03T13:41:42.447Z,2.25
2019-04-03T13:42:56.139Z,1.98
2019-04-03T13:44:09.385Z,2.72
2019-04-03T13:45:22.626Z,1.92
2019-04-03T13:46:37.464Z,2.92
2019-04-03T13:47:51.099Z,1.75
2019-04-03T13:49:05.133Z,1.55
2019-04-03T13:50:18.529Z,1.80
2019-04-03T13:51:31.868Z,2.85
2019-04-03T13:52:48.406Z,2.65
2019-04-03T13:54:02.219Z,6.10
2019-04-03T13:55:15.937Z,2.22
2019-04-03T13:56:29.285Z,1.95
2019-04-03T13:57:42.710Z,3.72
2019-04-03T13:58:56.325Z,2.50
2019-04-03T14:00:20.238Z,4.85
2019-04-03T14:01:27.555Z,2.20
2019-04-03T14:02:44.945Z,1.47
2019-04-03T14:03:56.660Z,2.35
2019-04-03T14:05:11.939Z,1.67
2019-04-03T14:06:25.532Z,2.27
2019-04-03T14:07:41.585Z,1.57
2019-04-03T14:08:54.187Z,4.55
2019-04-03T14:10:09.037Z,6.67
2019-04-03T14:11:23.253Z,3.45
2019-04-03T14:12:38.053Z,2.22
2019-04-03T14:13:53.345Z,3.08
2019-04-03T14:15:07.527Z,1.77
2019-04-03T14:16:22.893Z,2.05
2019-04-03T14:17:36.266Z,2.65
2019-04-03T14:18:51.196Z,2.22
2019-04-03T14:20:06.220Z,2.12
2019-04-03T14:21:19.645Z,2.10
2019-04-03T14:22:38.765Z,3.50
2019-04-03T14:23:52.094Z,2.67
2019-04-03T14:25:17.932Z,3.37
2019-04-03T14:26:23.214Z,1.92
2019-04-03T14:27:36.490Z,2.62
2019-04-03T14:28:49.849Z,8.68
2019-04-03T14:30:10.234Z,3.58
2019-04-03T14:31:34.304Z,2.62
2019-04-03T14:32:40.091Z,1.98
2019-04-03T14:33:54.940Z,5.33
2019-04-03T14:35:34.155Z,3.85
2019-04-03T14:36:25.355Z,7.50
2019-04-03T14:37:38.787Z,9.13
2019-04-03T14:38:53.139Z,4.20
2019-04-03T14:40:07.095Z,1.32
2019-04-03T14:41:20.778Z,2.35
2019-04-03T14:42:36.429Z,2.08
2019-04-03T14:43:50.866Z,1.35
2019-04-03T14:45:07.224Z,3.35
2019-04-03T14:46:21.569Z,1.80
2019-04-03T14:47:37.579Z,5.72
2019-04-03T14:48:52.032Z,3.75
2019-04-03T14:50:07.111Z,3.85
2019-04-03T14:51:21.623Z,2.05
2019-04-03T14:52:37.264Z,2.17
2019-04-03T14:53:53.467Z,2.25
2019-04-03T14:55:18.212Z,2.65
2019-04-03T14:56:22.187Z,3.45
2019-04-03T14:57:35.903Z,1.85
2019-04-03T14:58:50.494Z,4.37
2019-04-03T15:00:23.950Z,2.77
2019-04-03T15:01:20.912Z,2.58
2019-04-03T15:02:34.848Z,1.82
2019-04-03T15:03:48.209Z,1.50
2019-04-03T15:05:02.302Z,1.82
2019-04-03T15:06:17.722Z,6.15
2019-04-03T15:07:31.082Z,2.62
2019-04-03T15:08:46.391Z,3.15
2019-04-03T15:10:00.433Z,4.08
2019-04-03T15:11:15.615Z,2.33
2019-04-03T15:12:29.128Z,5.85
2019-04-03T15:13:42.424Z,2.95
2019-04-03T15:14:56.042Z,4.65
2019-04-03T15:16:09.900Z,2.58
2019-04-03T15:17:23.846Z,2.12
2019-04-03T15:18:37.392Z,6.05
2019-04-03T15:19:50.686Z,1.40
2019-04-03T15:21:07.021Z,1.92
2019-04-03T15:22:20.568Z,2.60
2019-04-03T15:23:39.992Z,2.42
2019-04-03T15:24:49.421Z,2.12
2019-04-03T15:26:02.732Z,2.15
2019-04-03T15:27:19.120Z,4.03
2019-04-03T15:28:33.035Z,4.50
2019-04-03T15:29:46.365Z,4.47
2019-04-03T15:30:59.666Z,2.30
2019-04-03T15:32:13.122Z,3.20
2019-04-03T15:33:26.511Z,1.90
2019-04-03T15:34:40.245Z,3.37
2019-04-03T15:35:54.106Z,1.85
2019-04-03T15:37:09.312Z,1.60
2019-04-03T15:38:23.214Z,2.47
2019-04-03T15:39:39.038Z,1.95
2019-04-03T15:40:52.349Z,3.62
2019-04-03T15:42:06.674Z,2.98
2019-04-03T15:43:21.274Z,2.10
2019-04-03T15:44:35.172Z,1.42
2019-04-03T15:45:49.305Z,2.05
2019-04-03T15:47:02.977Z,3.70
2019-04-03T15:48:17.082Z,2.10
2019-04-03T15:49:30.740Z,1.70
2019-04-03T15:50:47.673Z,3.27
2019-04-03T15:52:01.581Z,1.60
2019-04-03T15:53:15.180Z,2.83
2019-04-03T15:54:31.505Z,2.22
2019-04-03T15:55:44.741Z,1.47
2019-04-03T15:57:04.315Z,1.77
2019-04-03T15:58:17.721Z,4.58
2019-04-03T15:59:32.041Z,2.60
2019-04-03T16:00:48.281Z,2.33
2019-04-03T16:02:01.989Z,3.62
2019-04-03T16:03:17.553Z,2.08
2019-04-03T16:04:30.275Z,2.25
2019-04-03T16:05:43.604Z,1.77
2019-04-03T16:06:56.997Z,3.47